Ararat, Virginia
Current Conditions -  °F | °C
As of 1:35 AM on Thursday 27 Nov 2014 (Local Time) from KMWK Reporting Station
Overcast Overcast  
Wind Chill:   Ceiling: 6000
Heat Index:   Visibility: 10mi
Dew Point:   Wind: 0mph
Humidity: 91%   Direction: NA
Pressure: 30.02"   Gusts: NA
Location:  36.6°N, 80.51°W
Report Text: KMWK 270635Z AUTO 00000KT 10SM BKN060 OVC080 04/02 A3002 RMK AO2 T00360023
Loading
Personal Weather Stations






























Interactive Weather Map New forecast layout! Learn more

10-Day Weather Forecast

Advertisements
Track Severe Weather on mobile